עמוד ראשי
METAR-TAF:

METAR-TAF

שדות תעופה :

נמל התעופה הבינלאומי סנגסטר

Montego Bay, ג'מייקה

קו רוחב: 18-30N, קו אורך: 077-55W, גובה: 1מטר

תצפית מזג אוויר נוכחית

הדו"ח נערך לפני 53דקות, בשעה 14:00 UTC
רוח 5קשר מכיוון מזרח
טמפרטורת 31 צלסיוס
לחות 66%
לחץ 1013 hPa
ראות 10 קילומטר או יותר
מעט עננים בגובה 2400רגל

METAR: MKJS 131400Z 10005KT 9999 FEW024 31/24 Q1013

זמן: 09:53 (14:53 UTC)

תחזית

הדו"ח נערך לפני 3 שעות ו 38דקות, בשעה 11:15 UTC
תחזית בתוקף מ 13 ב 12 UTC עד 14 ב 12 UTC
רוח 4קשר מכיוון דרום/דרום-מזרח
ראות 10 קילומטר או יותר
מעט עננים בגובה 2400רגל
יעשה מ
13 ב 14 UTC עד 13 ב 16 UTC
רוח 15קשר מכיוון מזרח/צפון-מזרח
יעשה מ
14 ב 01 UTC עד 14 ב 03 UTC
רוח 3קשר עם כיוונים משתנים

TAF: MKJS 131115Z 1312/1412 15004KT 9999 FEW024 BECMG 1314/1316 06015KT BECMG 1401/1403 VRB03KT

תצפיות ותחזיות מזג אוויר לגבי יותר מ- 4,000 שדות תעופה ברחבי העולם. דוחות METAR ו- TAF.

התחנות הזמינות מסומנות בנקודות צהובות ואדומות על גבי המפה.

העבר את העכבר לנקודה הצבעונית על מנת לראות את שם התחנה.

לאחר מכן, לחץ כדי לראות את תוכן ואת תחזיות מזג האוויר.

כדי לשנות את המפה: לחץ על הכפתורים הירוקים עם הפלוס השחור כדי להתקרב; על הכפתור הירוק עם המקף כדי להתרחק; או בחיצים הירוקים למפות סמוכות.


METAR-TAF: